createdAt,value
2018-07-17T00:02:04.769Z,6.23
2018-07-17T00:04:33.271Z,6.03
2018-07-17T00:07:01.794Z,5.40
2018-07-17T00:09:30.631Z,5.43
2018-07-17T00:12:00.130Z,5.42
2018-07-17T00:14:29.583Z,5.77
2018-07-17T00:16:58.676Z,5.50
2018-07-17T00:19:27.193Z,5.85
2018-07-17T00:21:56.187Z,6.05
2018-07-17T00:24:25.318Z,5.57
2018-07-17T00:26:55.214Z,5.67
2018-07-17T00:29:23.977Z,6.07
2018-07-17T00:31:53.047Z,5.57
2018-07-17T00:34:21.887Z,6.23
2018-07-17T00:36:50.066Z,5.63
2018-07-17T00:39:19.534Z,5.80
2018-07-17T00:41:48.441Z,6.57
2018-07-17T00:44:17.785Z,6.73
2018-07-17T00:46:46.419Z,6.83
2018-07-17T00:49:14.682Z,6.53
2018-07-17T00:53:12.625Z,6.80
2018-07-17T00:55:41.199Z,7.30
2018-07-17T00:58:09.394Z,6.93
2018-07-17T01:00:45.721Z,6.80
2018-07-17T01:03:20.445Z,7.13
2018-07-17T01:05:54.714Z,7.10
2018-07-17T01:08:28.705Z,6.83
2018-07-17T01:11:02.814Z,6.97
2018-07-17T01:13:38.738Z,7.03
2018-07-17T01:16:07.913Z,6.80
2018-07-17T01:18:38.639Z,5.80
2018-07-17T01:21:07.258Z,6.27
2018-07-17T01:23:36.994Z,7.37
2018-07-17T01:26:06.727Z,6.50
2018-07-17T01:28:37.692Z,7.20
2018-07-17T01:31:08.165Z,6.93
2018-07-17T01:33:37.065Z,9.15
2018-07-17T01:36:05.802Z,10.95
2018-07-17T01:38:33.999Z,9.43
2018-07-17T01:41:03.028Z,8.70
2018-07-17T01:43:33.234Z,8.53
2018-07-17T01:46:02.119Z,9.13
2018-07-17T01:48:30.357Z,8.10
2018-07-17T01:50:59.519Z,8.70
2018-07-17T01:53:28.419Z,8.50
2018-07-17T01:55:57.151Z,7.53
2018-07-17T01:58:25.445Z,7.77
2018-07-17T02:00:55.201Z,7.93
2018-07-17T02:03:24.661Z,7.50
2018-07-17T02:05:53.117Z,8.30
2018-07-17T02:08:22.829Z,8.63
2018-07-17T02:10:51.058Z,8.60
2018-07-17T02:13:19.958Z,7.57
2018-07-17T02:15:48.634Z,7.87
2018-07-17T02:18:16.805Z,7.97
2018-07-17T02:20:45.963Z,7.90
2018-07-17T02:23:14.582Z,7.97
2018-07-17T02:25:43.727Z,8.37
2018-07-17T02:28:12.635Z,8.27
2018-07-17T02:30:41.665Z,8.27
2018-07-17T02:33:09.813Z,8.13
2018-07-17T02:35:38.169Z,7.87
2018-07-17T02:38:07.479Z,8.07
2018-07-17T02:40:35.582Z,8.80
2018-07-17T02:44:07.034Z,8.63
2018-07-17T02:46:35.899Z,9.77
2018-07-17T02:49:05.640Z,8.60
2018-07-17T02:51:47.062Z,8.73
2018-07-17T02:54:15.523Z,8.60
2018-07-17T02:56:44.362Z,8.10
2018-07-17T02:59:12.539Z,8.77
2018-07-17T03:01:41.614Z,9.13
2018-07-17T03:04:10.298Z,8.43
2018-07-17T03:06:39.765Z,9.10
2018-07-17T03:09:08.554Z,8.33
2018-07-17T03:11:37.157Z,8.70
2018-07-17T03:14:05.846Z,8.10
2018-07-17T03:16:36.005Z,8.90
2018-07-17T03:19:05.449Z,9.40
2018-07-17T03:21:34.246Z,8.80
2018-07-17T03:24:03.647Z,9.53
2018-07-17T03:26:33.034Z,8.83
2018-07-17T03:29:02.343Z,8.87
2018-07-17T03:31:31.702Z,8.90
2018-07-17T03:34:01.194Z,8.97
2018-07-17T03:36:30.884Z,8.53
2018-07-17T03:38:59.648Z,9.20
2018-07-17T03:41:29.006Z,9.60
2018-07-17T03:43:57.458Z,10.50
2018-07-17T03:46:26.998Z,10.47
2018-07-17T03:48:55.886Z,8.87
2018-07-17T03:51:24.310Z,9.40
2018-07-17T03:53:53.566Z,10.70
2018-07-17T03:56:22.276Z,9.77
2018-07-17T03:58:51.291Z,10.73
2018-07-17T04:01:21.104Z,10.57
2018-07-17T04:03:50.918Z,10.00
2018-07-17T04:06:20.810Z,9.83
2018-07-17T04:08:50.190Z,11.10
2018-07-17T04:11:18.866Z,9.87
2018-07-17T04:13:47.754Z,8.83
2018-07-17T04:16:16.175Z,9.17
2018-07-17T04:18:45.668Z,9.13
2018-07-17T04:21:15.764Z,10.07
2018-07-17T04:23:44.359Z,9.73
2018-07-17T04:26:13.444Z,10.23
2018-07-17T04:28:43.084Z,9.43
2018-07-17T04:31:12.647Z,8.97
2018-07-17T04:33:41.642Z,9.40
2018-07-17T04:36:10.739Z,9.00
2018-07-17T04:38:39.570Z,8.37
2018-07-17T04:41:08.693Z,8.23
2018-07-17T04:43:38.546Z,8.53
2018-07-17T04:46:07.486Z,8.10
2018-07-17T04:48:36.861Z,8.07
2018-07-17T04:51:05.559Z,7.35
2018-07-17T04:53:34.361Z,6.87
2018-07-17T04:56:03.545Z,6.50
2018-07-17T04:58:32.040Z,7.85
2018-07-17T05:01:00.760Z,6.70
2018-07-17T05:03:30.363Z,7.35
2018-07-17T05:05:59.337Z,8.00
2018-07-17T05:08:28.134Z,7.15
2018-07-17T05:10:57.253Z,5.70
2018-07-17T05:13:25.693Z,6.28
2018-07-17T05:15:54.606Z,6.85
2018-07-17T05:18:22.764Z,6.33
2018-07-17T05:20:52.677Z,6.65
2018-07-17T05:23:21.668Z,6.85
2018-07-17T05:25:51.835Z,5.97
2018-07-17T05:28:20.205Z,5.85
2018-07-17T05:30:48.643Z,5.15
2018-07-17T05:33:17.321Z,5.80
2018-07-17T05:35:45.607Z,6.15
2018-07-17T05:38:14.135Z,5.95
2018-07-17T05:40:42.708Z,5.53
2018-07-17T05:43:11.848Z,4.80
2018-07-17T05:45:41.490Z,4.87
2018-07-17T05:48:10.112Z,4.80
2018-07-17T05:50:38.235Z,4.17
2018-07-17T05:53:06.735Z,4.65
2018-07-17T05:55:36.522Z,5.20
2018-07-17T05:58:05.270Z,4.55
2018-07-17T06:00:34.340Z,4.33
2018-07-17T06:03:02.637Z,4.12
2018-07-17T06:05:32.085Z,4.17
2018-07-17T06:08:00.581Z,4.78
2018-07-17T06:10:29.250Z,4.75
2018-07-17T06:12:58.054Z,3.80
2018-07-17T06:15:27.119Z,4.37
2018-07-17T06:17:55.457Z,3.72
2018-07-17T06:20:25.629Z,4.28
2018-07-17T06:22:55.199Z,4.08
2018-07-17T06:25:24.066Z,3.35
2018-07-17T06:27:53.482Z,4.50
2018-07-17T06:30:22.126Z,3.80
2018-07-17T06:32:50.985Z,3.92
2018-07-17T06:35:20.309Z,3.98
2018-07-17T06:37:48.756Z,4.10
2018-07-17T06:40:17.692Z,3.83
2018-07-17T06:42:47.909Z,3.55
2018-07-17T06:45:16.405Z,3.85
2018-07-17T06:47:45.433Z,3.95
2018-07-17T06:50:14.084Z,3.98
2018-07-17T06:52:42.504Z,4.03
2018-07-17T06:55:11.005Z,4.25
2018-07-17T06:57:40.179Z,4.47
2018-07-17T07:00:09.260Z,4.15
2018-07-17T07:02:38.150Z,4.90
2018-07-17T07:05:07.084Z,4.95
2018-07-17T07:07:35.379Z,3.98
2018-07-17T07:10:03.949Z,4.50
2018-07-17T07:12:32.506Z,3.87
2018-07-17T07:15:01.400Z,3.52
2018-07-17T07:17:30.637Z,3.83
2018-07-17T07:19:59.245Z,3.47
2018-07-17T07:22:28.601Z,3.08
2018-07-17T07:24:57.557Z,3.20
2018-07-17T07:27:25.769Z,3.10
2018-07-17T07:29:53.960Z,3.40
2018-07-17T07:32:22.517Z,2.60
2018-07-17T07:34:51.374Z,2.92
2018-07-17T07:37:20.364Z,2.35
2018-07-17T07:39:48.590Z,2.33
2018-07-17T07:42:17.287Z,2.47
2018-07-17T07:44:46.006Z,2.27
2018-07-17T07:47:14.304Z,2.72
2018-07-17T07:49:43.202Z,2.50
2018-07-17T07:52:12.613Z,2.83
2018-07-17T07:54:42.310Z,2.60
2018-07-17T07:57:11.345Z,2.70
2018-07-17T07:59:40.548Z,2.95
2018-07-17T08:02:09.217Z,2.65
2018-07-17T08:04:38.308Z,2.98
2018-07-17T08:07:07.699Z,2.80
2018-07-17T08:09:36.272Z,3.60
2018-07-17T08:12:05.969Z,3.05
2018-07-17T08:14:34.996Z,3.30
2018-07-17T08:17:04.071Z,3.40
2018-07-17T08:19:34.501Z,3.08
2018-07-17T08:22:03.801Z,3.05
2018-07-17T08:24:31.877Z,2.90
2018-07-17T08:27:00.455Z,3.10
2018-07-17T08:29:30.174Z,3.47
2018-07-17T08:31:58.497Z,3.42
2018-07-17T08:34:27.333Z,2.75
2018-07-17T08:36:55.610Z,3.25
2018-07-17T08:39:24.873Z,3.42
2018-07-17T08:41:54.002Z,3.17
2018-07-17T08:44:23.219Z,2.90
2018-07-17T08:46:51.977Z,3.05
2018-07-17T08:49:21.543Z,3.22
2018-07-17T08:51:50.318Z,3.58
2018-07-17T08:54:18.969Z,2.95
2018-07-17T08:56:47.914Z,2.92
2018-07-17T08:59:16.026Z,3.02
2018-07-17T09:01:44.390Z,2.83
2018-07-17T09:04:12.964Z,2.67
2018-07-17T09:06:41.862Z,2.60
2018-07-17T09:09:10.802Z,3.20
2018-07-17T09:11:39.239Z,2.90
2018-07-17T09:14:08.370Z,2.55
2018-07-17T09:16:37.202Z,2.35
2018-07-17T09:19:05.671Z,2.60
2018-07-17T09:21:34.785Z,2.65
2018-07-17T09:24:03.015Z,2.90
2018-07-17T09:26:31.182Z,2.50
2018-07-17T09:28:59.729Z,2.72
2018-07-17T09:31:28.318Z,2.58
2018-07-17T09:33:57.698Z,2.70
2018-07-17T09:36:26.623Z,2.65
2018-07-17T09:38:54.619Z,2.70
2018-07-17T09:41:23.142Z,2.60
2018-07-17T09:43:51.390Z,2.52
2018-07-17T09:46:20.379Z,2.55
2018-07-17T09:48:49.203Z,2.52
2018-07-17T09:51:17.643Z,2.40
2018-07-17T09:53:47.472Z,2.45
2018-07-17T09:56:16.436Z,2.62
2018-07-17T09:58:45.604Z,2.85
2018-07-17T10:01:20.005Z,2.70
2018-07-17T10:03:48.573Z,2.40
2018-07-17T10:06:17.118Z,2.58
2018-07-17T10:08:46.065Z,2.62
2018-07-17T10:11:14.624Z,2.98
2018-07-17T10:13:43.757Z,2.75
2018-07-17T10:16:12.778Z,2.90
2018-07-17T10:18:41.398Z,2.87
2018-07-17T10:21:11.437Z,2.80
2018-07-17T11:45:37.945Z,2.10
2018-07-17T11:48:06.175Z,2.60
2018-07-17T11:50:34.526Z,2.60
2018-07-17T11:53:02.779Z,2.95
2018-07-17T11:55:31.113Z,2.83
2018-07-17T11:57:59.350Z,2.40
2018-07-17T12:00:27.512Z,2.45
2018-07-17T12:02:55.662Z,2.27
2018-07-17T12:05:23.855Z,2.72
2018-07-17T12:07:52.023Z,2.83
2018-07-17T12:10:20.221Z,2.10
2018-07-17T12:12:48.523Z,2.55
2018-07-17T12:15:16.689Z,2.33
2018-07-17T12:17:45.042Z,2.62
2018-07-17T12:20:13.628Z,2.47
2018-07-17T12:22:41.645Z,3.00
2018-07-17T12:25:09.874Z,1.92
2018-07-17T12:27:38.064Z,2.08
2018-07-17T12:30:06.406Z,2.40
2018-07-17T12:32:34.689Z,2.70
2018-07-17T12:35:03.075Z,2.60
2018-07-17T12:37:31.580Z,2.87
2018-07-17T12:39:59.997Z,2.95
2018-07-17T12:42:28.254Z,2.70
2018-07-17T12:44:56.573Z,3.12
2018-07-17T12:47:24.966Z,3.12
2018-07-17T12:49:53.511Z,2.65
2018-07-17T12:52:21.994Z,2.52
2018-07-17T12:54:50.814Z,2.70
2018-07-17T12:57:20.119Z,3.08
2018-07-17T12:59:48.825Z,3.37
2018-07-17T13:02:17.202Z,3.12
2018-07-17T13:04:45.329Z,2.98
2018-07-17T13:07:13.955Z,3.02
2018-07-17T13:09:42.758Z,3.90
2018-07-17T13:12:11.487Z,3.00
2018-07-17T13:14:39.839Z,3.58
2018-07-17T13:17:08.274Z,3.30
2018-07-17T13:19:36.749Z,3.52
2018-07-17T13:22:05.253Z,3.25
2018-07-17T13:24:33.454Z,3.17
2018-07-17T13:27:01.755Z,3.47
2018-07-17T13:29:30.580Z,3.67
2018-07-17T13:31:58.730Z,2.80
2018-07-17T13:34:27.046Z,3.50
2018-07-17T13:36:56.030Z,3.02
2018-07-17T13:39:24.727Z,3.00
2018-07-17T13:41:52.981Z,3.47
2018-07-17T13:44:21.559Z,3.33
2018-07-17T13:46:49.752Z,2.92
2018-07-17T13:49:17.925Z,2.95
2018-07-17T13:51:46.219Z,2.90
2018-07-17T13:54:14.349Z,3.52
2018-07-17T13:56:42.548Z,2.75
2018-07-17T13:59:10.749Z,2.70
2018-07-17T14:01:38.881Z,3.00
2018-07-17T14:04:07.970Z,2.95
2018-07-17T14:06:36.202Z,3.05
2018-07-17T14:09:06.459Z,2.30
2018-07-17T14:11:34.994Z,2.85
2018-07-17T14:14:03.389Z,3.12
2018-07-17T14:16:35.918Z,2.83
2018-07-17T14:19:05.310Z,3.27
2018-07-17T14:21:34.243Z,2.60
2018-07-17T14:24:03.026Z,2.77
2018-07-17T14:26:31.333Z,2.62
2018-07-17T14:29:00.048Z,2.95
2018-07-17T14:31:29.293Z,3.08
2018-07-17T14:33:57.542Z,2.80
2018-07-17T14:36:26.082Z,2.60
2018-07-17T14:38:54.859Z,2.75
2018-07-17T14:41:22.830Z,2.50
2018-07-17T14:43:51.611Z,2.40
2018-07-17T14:46:20.621Z,2.42
2018-07-17T14:48:48.477Z,2.80
2018-07-17T14:51:16.649Z,2.58
2018-07-17T14:53:44.767Z,2.85
2018-07-17T14:56:13.018Z,2.52
2018-07-17T14:58:41.649Z,2.37
2018-07-17T15:01:10.352Z,3.12
2018-07-17T15:03:38.689Z,2.55
2018-07-17T15:06:07.535Z,2.50
2018-07-17T15:08:36.047Z,2.40
2018-07-17T15:11:05.352Z,2.42
2018-07-17T15:13:33.778Z,2.22
2018-07-17T15:16:02.096Z,2.70
2018-07-17T15:18:31.562Z,2.47
2018-07-17T15:21:00.197Z,2.35
2018-07-17T15:23:28.473Z,2.22
2018-07-17T15:25:56.698Z,2.30
2018-07-17T15:28:25.431Z,2.20
2018-07-17T15:30:53.600Z,2.42
2018-07-17T15:33:22.372Z,2.52
2018-07-17T15:35:51.438Z,2.83
2018-07-17T15:38:20.042Z,2.20
2018-07-17T15:40:48.783Z,2.55
2018-07-17T15:43:17.899Z,2.50
2018-07-17T15:45:46.450Z,2.33
2018-07-17T15:48:14.961Z,2.47
2018-07-17T15:50:43.724Z,2.60
2018-07-17T15:53:11.869Z,2.45
2018-07-17T15:55:40.236Z,2.47
2018-07-17T15:58:09.112Z,2.65
2018-07-17T16:00:37.753Z,2.20
2018-07-17T16:03:06.144Z,2.10
2018-07-17T16:05:35.050Z,1.80
2018-07-17T16:08:03.681Z,2.30
2018-07-17T16:10:31.818Z,2.87
2018-07-17T16:13:00.501Z,2.10
2018-07-17T16:15:29.521Z,2.72
2018-07-17T16:17:57.897Z,2.30
2018-07-17T16:20:26.521Z,2.42
2018-07-17T16:22:54.839Z,2.30
2018-07-17T16:25:23.253Z,2.15
2018-07-17T16:27:51.836Z,2.40
2018-07-17T16:30:21.199Z,2.30
2018-07-17T16:32:50.468Z,2.30
2018-07-17T16:35:19.560Z,1.82
2018-07-17T16:37:47.898Z,2.12
2018-07-17T16:40:16.509Z,2.05
2018-07-17T16:42:45.336Z,2.00
2018-07-17T16:45:13.576Z,2.40
2018-07-17T16:47:42.139Z,2.50
2018-07-17T16:50:11.190Z,2.30
2018-07-17T16:52:40.225Z,2.40
2018-07-17T16:55:08.745Z,2.40
2018-07-17T16:57:37.165Z,2.47
2018-07-17T17:00:06.099Z,2.30
2018-07-17T17:02:35.163Z,2.40
2018-07-17T17:05:03.461Z,2.60
2018-07-17T17:07:33.244Z,2.12
2018-07-17T17:10:01.479Z,2.27
2018-07-17T17:12:30.277Z,2.35
2018-07-17T17:14:58.894Z,2.52
2018-07-17T17:17:28.193Z,2.47
2018-07-17T17:19:56.552Z,2.90
2018-07-17T17:22:25.454Z,2.08
2018-07-17T17:24:54.583Z,2.33
2018-07-17T17:27:22.857Z,2.30
2018-07-17T17:29:52.172Z,2.35
2018-07-17T17:32:21.545Z,2.10
2018-07-17T17:34:50.166Z,2.20
2018-07-17T17:39:09.399Z,2.00
2018-07-17T17:41:37.875Z,2.02
2018-07-17T17:44:07.967Z,1.75
2018-07-17T17:46:36.580Z,1.82
2018-07-17T17:49:04.954Z,1.67
2018-07-17T17:51:33.550Z,2.08
2018-07-17T17:54:01.853Z,1.50
2018-07-17T17:56:30.094Z,1.50
2018-07-17T17:58:58.290Z,1.20
2018-07-17T18:01:28.651Z,1.30
2018-07-17T18:03:56.866Z,1.30
2018-07-17T18:06:25.184Z,1.62
2018-07-17T18:08:53.425Z,1.20
2018-07-17T18:11:21.613Z,1.52
2018-07-17T18:13:49.782Z,1.52
2018-07-17T18:16:18.205Z,1.30
2018-07-17T18:18:46.452Z,1.20
2018-07-17T18:21:14.590Z,1.40
2018-07-17T18:23:42.889Z,1.32
2018-07-17T18:26:11.180Z,1.10
2018-07-17T18:28:43.741Z,1.00
2018-07-17T18:31:12.015Z,1.52
2018-07-17T18:33:42.371Z,1.20
2018-07-17T18:36:10.710Z,1.30
2018-07-17T18:38:38.998Z,1.25
2018-07-17T18:41:08.246Z,1.45
2018-07-17T18:43:36.573Z,1.30
2018-07-17T18:46:04.951Z,1.20
2018-07-17T18:48:34.240Z,1.35
2018-07-17T18:51:03.599Z,1.20
2018-07-17T18:53:32.242Z,1.60
2018-07-17T18:56:02.510Z,1.52
2018-07-17T18:58:30.765Z,1.30
2018-07-17T19:00:59.016Z,1.30
2018-07-17T19:03:29.376Z,1.75
2018-07-17T19:05:57.692Z,1.62
2018-07-17T19:08:27.024Z,1.50
2018-07-17T19:10:55.312Z,1.52
2018-07-17T19:13:23.596Z,1.55
2018-07-17T19:15:51.849Z,1.55
2018-07-17T19:18:20.071Z,1.47
2018-07-17T19:20:48.398Z,1.85
2018-07-17T19:23:20.075Z,1.80
2018-07-17T19:25:51.802Z,1.60
2018-07-17T19:28:20.044Z,1.77
2018-07-17T19:30:48.264Z,2.30
2018-07-17T19:33:18.936Z,3.52
2018-07-17T19:35:48.405Z,3.85
2018-07-17T19:38:16.540Z,3.67
2018-07-17T19:40:45.831Z,5.60
2018-07-17T19:43:14.209Z,5.45
2018-07-17T19:45:43.334Z,4.72
2018-07-17T19:48:11.974Z,5.22
2018-07-17T19:50:40.185Z,4.83
2018-07-17T19:53:08.789Z,5.35
2018-07-17T19:55:37.048Z,5.30
2018-07-17T19:58:06.234Z,5.22
2018-07-17T20:00:34.422Z,5.30
2018-07-17T20:03:03.689Z,5.20
2018-07-17T20:05:32.977Z,4.87
2018-07-17T20:08:05.226Z,5.55
2018-07-17T20:10:33.564Z,5.70
2018-07-17T20:13:02.815Z,4.85
2018-07-17T20:15:31.067Z,4.70
2018-07-17T20:18:00.443Z,4.87
2018-07-17T20:20:28.781Z,5.08
2018-07-17T20:22:56.950Z,4.45
2018-07-17T20:25:25.191Z,5.03
2018-07-17T20:27:53.512Z,4.22
2018-07-17T20:30:21.731Z,4.03
2018-07-17T20:32:50.082Z,4.50
2018-07-17T20:35:18.146Z,5.08
2018-07-17T20:37:47.486Z,4.08
2018-07-17T20:40:15.658Z,4.47
2018-07-17T20:42:43.829Z,4.60
2018-07-17T20:45:12.065Z,4.55
2018-07-17T20:47:40.549Z,4.55
2018-07-17T20:50:09.791Z,4.67
2018-07-17T20:52:38.089Z,5.08
2018-07-17T20:55:06.347Z,4.58
2018-07-17T20:57:34.648Z,3.95
2018-07-17T21:00:04.173Z,4.53
2018-07-17T21:02:32.470Z,4.83
2018-07-17T21:05:00.701Z,4.85
2018-07-17T21:07:29.830Z,4.45
2018-07-17T21:09:58.043Z,4.65
2018-07-17T21:12:27.215Z,5.03
2018-07-17T21:14:55.451Z,4.75
2018-07-17T21:17:23.763Z,5.05
2018-07-17T21:19:51.924Z,5.12
2018-07-17T21:22:22.210Z,5.10
2018-07-17T21:24:51.405Z,5.28
2018-07-17T21:27:20.572Z,5.55
2018-07-17T21:29:48.800Z,4.78
2018-07-17T21:32:16.987Z,4.50
2018-07-17T21:34:48.813Z,4.42
2018-07-17T21:37:17.059Z,4.92
2018-07-17T21:39:45.225Z,5.30
2018-07-17T21:42:13.404Z,5.03
2018-07-17T21:44:46.534Z,4.60
2018-07-17T21:47:14.813Z,5.50
2018-07-17T21:49:43.013Z,5.45
2018-07-17T21:52:11.236Z,5.03
2018-07-17T21:54:39.445Z,5.25
2018-07-17T21:57:07.723Z,4.85
2018-07-17T21:59:35.989Z,4.67
2018-07-17T22:02:04.177Z,4.60
2018-07-17T22:04:32.364Z,4.97
2018-07-17T22:07:00.550Z,4.75
2018-07-17T22:09:28.894Z,4.70
2018-07-17T22:11:57.162Z,5.20
2018-07-17T22:14:25.344Z,5.97
2018-07-17T22:16:53.580Z,5.10
2018-07-17T22:19:23.840Z,5.25
2018-07-17T22:21:51.966Z,4.70
2018-07-17T22:24:20.315Z,4.42
2018-07-17T22:26:48.579Z,4.85
2018-07-17T22:29:16.874Z,4.45
2018-07-17T22:31:47.178Z,5.00
2018-07-17T22:34:15.389Z,3.90
2018-07-17T22:36:44.583Z,4.80
2018-07-17T22:39:13.767Z,5.62
2018-07-17T22:41:41.937Z,4.87
2018-07-17T22:44:10.161Z,5.22
2018-07-17T22:46:38.755Z,5.37
2018-07-17T22:49:06.725Z,5.65
2018-07-17T22:51:34.869Z,6.53
2018-07-17T22:54:04.285Z,5.55
2018-07-17T22:56:34.752Z,5.30
2018-07-17T22:59:03.950Z,5.15
2018-07-17T23:01:32.144Z,5.20
2018-07-17T23:04:00.307Z,4.55
2018-07-17T23:06:30.519Z,5.03
2018-07-17T23:08:59.817Z,4.92
2018-07-17T23:11:28.398Z,5.22
2018-07-17T23:13:56.642Z,4.87
2018-07-17T23:16:24.806Z,5.17
2018-07-17T23:18:52.975Z,5.58
2018-07-17T23:21:22.240Z,6.12
2018-07-17T23:23:52.439Z,6.22
2018-07-17T23:26:20.605Z,6.75
2018-07-17T23:28:48.824Z,6.58
2018-07-17T23:31:18.038Z,6.45
2018-07-17T23:33:47.246Z,6.42
2018-07-17T23:36:16.496Z,7.08
2018-07-17T23:38:45.713Z,6.05
2018-07-17T23:41:13.897Z,7.65
2018-07-17T23:43:42.151Z,6.92
2018-07-17T23:46:10.349Z,6.67
2018-07-17T23:48:39.638Z,7.25
2018-07-17T23:51:07.772Z,7.53
2018-07-17T23:53:36.087Z,7.58
2018-07-17T23:56:04.271Z,7.70
2018-07-17T23:58:32.428Z,7.75
